sensor_id;sensor_type;location;lat;lon;timestamp;pressure;altitude;pressure_sealevel;temperature
30765;BMP180;494;48.744;10.106;2022-11-15T00:01:27;95599.00;;;7.70
30765;BMP180;494;48.744;10.106;2022-11-15T00:03:56;95631.00;;;10.20
30765;BMP180;494;48.744;10.106;2022-11-15T00:06:24;95108.00;;;10.30
30765;BMP180;494;48.744;10.106;2022-11-15T00:08:53;95486.00;;;10.20
30765;BMP180;494;48.744;10.106;2022-11-15T00:11:21;95401.00;;;9.20
30765;BMP180;494;48.744;10.106;2022-11-15T00:13:50;95413.00;;;10.10
30765;BMP180;494;48.744;10.106;2022-11-15T00:16:20;95446.00;;;9.20
30765;BMP180;494;48.744;10.106;2022-11-15T00:18:49;95554.00;;;10.20
30765;BMP180;494;48.744;10.106;2022-11-15T00:21:18;95054.00;;;10.10
30765;BMP180;494;48.744;10.106;2022-11-15T00:23:47;95249.00;;;10.30
30765;BMP180;494;48.744;10.106;2022-11-15T00:26:15;95390.00;;;9.70
30765;BMP180;494;48.744;10.106;2022-11-15T00:28:45;95015.00;;;10.20
30765;BMP180;494;48.744;10.106;2022-11-15T00:31:14;95219.00;;;8.90
30765;BMP180;494;48.744;10.106;2022-11-15T00:33:45;94790.00;;;9.90
30765;BMP180;494;48.744;10.106;2022-11-15T00:36:13;95545.00;;;9.90
30765;BMP180;494;48.744;10.106;2022-11-15T00:38:42;95256.00;;;8.40
30765;BMP180;494;48.744;10.106;2022-11-15T00:41:10;95547.00;;;10.20
30765;BMP180;494;48.744;10.106;2022-11-15T00:43:39;95534.00;;;8.80
30765;BMP180;494;48.744;10.106;2022-11-15T00:46:11;95426.00;;;8.90
30765;BMP180;494;48.744;10.106;2022-11-15T00:48:39;95253.00;;;10.00
30765;BMP180;494;48.744;10.106;2022-11-15T00:51:09;95534.00;;;10.10
30765;BMP180;494;48.744;10.106;2022-11-15T00:53:38;95605.00;;;10.20
30765;BMP180;494;48.744;10.106;2022-11-15T00:56:07;95533.00;;;10.20
30765;BMP180;494;48.744;10.106;2022-11-15T00:58:35;95407.00;;;9.10
30765;BMP180;494;48.744;10.106;2022-11-15T01:01:09;95171.00;;;10.30
30765;BMP180;494;48.744;10.106;2022-11-15T01:03:39;95601.00;;;10.20
30765;BMP180;494;48.744;10.106;2022-11-15T01:06:10;94905.00;;;9.20
30765;BMP180;494;48.744;10.106;2022-11-15T01:08:40;95612.00;;;10.00
30765;BMP180;494;48.744;10.106;2022-11-15T01:11:11;95557.00;;;10.20
30765;BMP180;494;48.744;10.106;2022-11-15T01:13:40;95292.00;;;8.60
30765;BMP180;494;48.744;10.106;2022-11-15T01:16:12;95488.00;;;9.70
30765;BMP180;494;48.744;10.106;2022-11-15T01:18:41;95580.00;;;10.20
30765;BMP180;494;48.744;10.106;2022-11-15T01:21:14;95118.00;;;10.20
30765;BMP180;494;48.744;10.106;2022-11-15T01:23:43;95637.00;;;10.20
30765;BMP180;494;48.744;10.106;2022-11-15T01:26:14;95501.00;;;10.20
30765;BMP180;494;48.744;10.106;2022-11-15T01:28:43;94858.00;;;9.70
30765;BMP180;494;48.744;10.106;2022-11-15T01:31:14;95355.00;;;10.20
30765;BMP180;494;48.744;10.106;2022-11-15T01:33:43;94962.00;;;10.10
30765;BMP180;494;48.744;10.106;2022-11-15T01:36:20;95579.00;;;9.30
30765;BMP180;494;48.744;10.106;2022-11-15T01:38:53;95566.00;;;10.20
30765;BMP180;494;48.744;10.106;2022-11-15T01:41:25;95494.00;;;10.20
30765;BMP180;494;48.744;10.106;2022-11-15T01:43:56;95485.00;;;10.20
30765;BMP180;494;48.744;10.106;2022-11-15T01:46:30;95476.00;;;9.70
30765;BMP180;494;48.744;10.106;2022-11-15T01:49:04;95479.00;;;10.10
30765;BMP180;494;48.744;10.106;2022-11-15T01:51:35;94860.00;;;9.60
30765;BMP180;494;48.744;10.106;2022-11-15T01:54:08;94948.00;;;9.00
30765;BMP180;494;48.744;10.106;2022-11-15T01:56:43;95179.00;;;8.60
30765;BMP180;494;48.744;10.106;2022-11-15T01:59:13;95548.00;;;10.10
30765;BMP180;494;48.744;10.106;2022-11-15T02:01:43;94963.00;;;9.90
30765;BMP180;494;48.744;10.106;2022-11-15T02:04:16;95481.00;;;9.80
30765;BMP180;494;48.744;10.106;2022-11-15T02:06:48;95364.00;;;9.60
30765;BMP180;494;48.744;10.106;2022-11-15T02:09:17;95517.00;;;8.10
30765;BMP180;494;48.744;10.106;2022-11-15T02:11:48;95401.00;;;8.90
30765;BMP180;494;48.744;10.106;2022-11-15T02:14:20;95144.00;;;9.70
30765;BMP180;494;48.744;10.106;2022-11-15T02:16:58;94948.00;;;9.00
30765;BMP180;494;48.744;10.106;2022-11-15T02:19:52;95228.00;;;9.90
30765;BMP180;494;48.744;10.106;2022-11-15T02:22:43;95494.00;;;9.90
30765;BMP180;494;48.744;10.106;2022-11-15T02:25:37;95147.00;;;9.20
30765;BMP180;494;48.744;10.106;2022-11-15T02:28:27;95406.00;;;8.60
30765;BMP180;494;48.744;10.106;2022-11-15T02:31:11;95441.00;;;9.30
30765;BMP180;494;48.744;10.106;2022-11-15T02:33:52;95483.00;;;8.60
30765;BMP180;494;48.744;10.106;2022-11-15T02:36:35;95504.00;;;9.10
30765;BMP180;494;48.744;10.106;2022-11-15T02:39:17;94789.00;;;9.10
30765;BMP180;494;48.744;10.106;2022-11-15T02:41:54;95260.00;;;9.60
30765;BMP180;494;48.744;10.106;2022-11-15T02:44:31;95207.00;;;7.90
30765;BMP180;494;48.744;10.106;2022-11-15T02:47:05;95326.00;;;9.50
30765;BMP180;494;48.744;10.106;2022-11-15T02:49:46;95513.00;;;8.90
30765;BMP180;494;48.744;10.106;2022-11-15T02:52:16;95430.00;;;9.50
30765;BMP180;494;48.744;10.106;2022-11-15T02:54:53;95017.00;;;9.50
30765;BMP180;494;48.744;10.106;2022-11-15T02:57:36;95226.00;;;7.90
30765;BMP180;494;48.744;10.106;2022-11-15T03:00:09;95228.00;;;9.20
30765;BMP180;494;48.744;10.106;2022-11-15T03:03:04;95510.00;;;7.50
30765;BMP180;494;48.744;10.106;2022-11-15T03:05:45;95095.00;;;8.40
30765;BMP180;494;48.744;10.106;2022-11-15T03:08:23;95374.00;;;8.40
30765;BMP180;494;48.744;10.106;2022-11-15T03:11:06;95505.00;;;9.20
30765;BMP180;494;48.744;10.106;2022-11-15T03:13:44;95136.00;;;9.10
30765;BMP180;494;48.744;10.106;2022-11-15T03:16:21;95378.00;;;9.10
30765;BMP180;494;48.744;10.106;2022-11-15T03:19:00;95235.00;;;8.30
30765;BMP180;494;48.744;10.106;2022-11-15T03:21:34;95442.00;;;8.50
30765;BMP180;494;48.744;10.106;2022-11-15T03:24:07;94843.00;;;9.00
30765;BMP180;494;48.744;10.106;2022-11-15T03:26:39;95419.00;;;9.00
30765;BMP180;494;48.744;10.106;2022-11-15T03:29:14;95446.00;;;8.90
30765;BMP180;494;48.744;10.106;2022-11-15T03:31:49;95338.00;;;8.10
30765;BMP180;494;48.744;10.106;2022-11-15T03:34:29;95323.00;;;8.90
30765;BMP180;494;48.744;10.106;2022-11-15T03:36:59;95182.00;;;7.10
30765;BMP180;494;48.744;10.106;2022-11-15T03:39:28;95464.00;;;8.70
30765;BMP180;494;48.744;10.106;2022-11-15T03:42:15;95488.00;;;8.80
30765;BMP180;494;48.744;10.106;2022-11-15T03:44:51;95374.00;;;8.70
30765;BMP180;494;48.744;10.106;2022-11-15T03:47:30;95207.00;;;8.00
30765;BMP180;494;48.744;10.106;2022-11-15T03:50:08;95506.00;;;8.50
30765;BMP180;494;48.744;10.106;2022-11-15T03:52:39;95184.00;;;8.90
30765;BMP180;494;48.744;10.106;2022-11-15T03:55:13;95416.00;;;8.80
30765;BMP180;494;48.744;10.106;2022-11-15T03:57:42;95417.00;;;8.80
30765;BMP180;494;48.744;10.106;2022-11-15T04:00:12;95412.00;;;8.80
30765;BMP180;494;48.744;10.106;2022-11-15T04:02:40;95286.00;;;8.00
30765;BMP180;494;48.744;10.106;2022-11-15T04:05:10;95317.00;;;8.60
30765;BMP180;494;48.744;10.106;2022-11-15T04:07:39;95007.00;;;7.50
30765;BMP180;494;48.744;10.106;2022-11-15T04:10:10;95521.00;;;7.00
30765;BMP180;494;48.744;10.106;2022-11-15T04:12:43;94883.00;;;8.90
30765;BMP180;494;48.744;10.106;2022-11-15T04:15:15;95175.00;;;8.90
30765;BMP180;494;48.744;10.106;2022-11-15T04:17:46;95293.00;;;7.80
30765;BMP180;494;48.744;10.106;2022-11-15T04:20:21;95395.00;;;8.90
30765;BMP180;494;48.744;10.106;2022-11-15T04:23:10;95460.00;;;8.60
30765;BMP180;494;48.744;10.106;2022-11-15T04:26:01;95231.00;;;8.40
30765;BMP180;494;48.744;10.106;2022-11-15T04:28:31;95309.00;;;8.80
30765;BMP180;494;48.744;10.106;2022-11-15T04:30:59;95335.00;;;8.90
30765;BMP180;494;48.744;10.106;2022-11-15T04:33:28;95273.00;;;7.40
30765;BMP180;494;48.744;10.106;2022-11-15T04:35:58;95417.00;;;8.90
30765;BMP180;494;48.744;10.106;2022-11-15T04:38:44;95397.00;;;8.90
30765;BMP180;494;48.744;10.106;2022-11-15T04:41:13;95082.00;;;8.80
30765;BMP180;494;48.744;10.106;2022-11-15T04:43:41;95445.00;;;8.70
30765;BMP180;494;48.744;10.106;2022-11-15T04:46:10;95346.00;;;8.70
30765;BMP180;494;48.744;10.106;2022-11-15T04:48:38;94636.00;;;8.80
30765;BMP180;494;48.744;10.106;2022-11-15T04:51:08;95474.00;;;8.60
30765;BMP180;494;48.744;10.106;2022-11-15T04:53:37;95387.00;;;8.60
30765;BMP180;494;48.744;10.106;2022-11-15T04:56:07;95414.00;;;7.30
30765;BMP180;494;48.744;10.106;2022-11-15T04:58:36;95251.00;;;8.50
30765;BMP180;494;48.744;10.106;2022-11-15T05:01:07;95380.00;;;8.40
30765;BMP180;494;48.744;10.106;2022-11-15T05:03:36;94238.00;;;8.60
30765;BMP180;494;48.744;10.106;2022-11-15T05:06:23;95378.00;;;8.40
30765;BMP180;494;48.744;10.106;2022-11-15T05:08:52;95382.00;;;8.30
30765;BMP180;494;48.744;10.106;2022-11-15T05:11:21;95370.00;;;8.50
30765;BMP180;494;48.744;10.106;2022-11-15T05:13:50;95374.00;;;8.40
30765;BMP180;494;48.744;10.106;2022-11-15T05:16:18;95339.00;;;7.50
30765;BMP180;494;48.744;10.106;2022-11-15T05:18:50;95252.00;;;7.70
30765;BMP180;494;48.744;10.106;2022-11-15T05:21:20;94854.00;;;7.70
30765;BMP180;494;48.744;10.106;2022-11-15T05:23:50;95051.00;;;8.40
30765;BMP180;494;48.744;10.106;2022-11-15T05:26:19;95437.00;;;7.10
30765;BMP180;494;48.744;10.106;2022-11-15T05:28:53;95273.00;;;8.40
30765;BMP180;494;48.744;10.106;2022-11-15T05:31:22;94740.00;;;8.10
30765;BMP180;494;48.744;10.106;2022-11-15T05:33:51;94959.00;;;7.90
30765;BMP180;494;48.744;10.106;2022-11-15T05:36:29;95356.00;;;8.60
30765;BMP180;494;48.744;10.106;2022-11-15T05:39:02;95502.00;;;8.50
30765;BMP180;494;48.744;10.106;2022-11-15T05:41:37;94624.00;;;8.00
30765;BMP180;494;48.744;10.106;2022-11-15T05:44:10;95440.00;;;8.10
30765;BMP180;494;48.744;10.106;2022-11-15T05:46:42;95009.00;;;8.60
30765;BMP180;494;48.744;10.106;2022-11-15T05:49:15;95080.00;;;8.60
30765;BMP180;494;48.744;10.106;2022-11-15T05:51:48;94399.00;;;8.60
30765;BMP180;494;48.744;10.106;2022-11-15T05:54:21;95404.00;;;7.10
30765;BMP180;494;48.744;10.106;2022-11-15T05:56:51;95465.00;;;8.60
30765;BMP180;494;48.744;10.106;2022-11-15T05:59:20;94688.00;;;7.10
30765;BMP180;494;48.744;10.106;2022-11-15T06:01:49;95143.00;;;7.00
30765;BMP180;494;48.744;10.106;2022-11-15T06:04:18;94287.00;;;8.60
30765;BMP180;494;48.744;10.106;2022-11-15T06:06:46;94702.00;;;7.10
30765;BMP180;494;48.744;10.106;2022-11-15T06:09:15;95174.00;;;8.70
30765;BMP180;494;48.744;10.106;2022-11-15T06:11:45;94446.00;;;8.60
30765;BMP180;494;48.744;10.106;2022-11-15T06:14:15;95383.00;;;7.10
30765;BMP180;494;48.744;10.106;2022-11-15T06:16:44;94676.00;;;8.50
30765;BMP180;494;48.744;10.106;2022-11-15T06:19:17;94692.00;;;7.60
30765;BMP180;494;48.744;10.106;2022-11-15T06:21:45;95651.00;;;6.20
30765;BMP180;494;48.744;10.106;2022-11-15T06:24:14;94652.00;;;5.20
30765;BMP180;494;48.744;10.106;2022-11-15T06:26:45;95435.00;;;8.40
30765;BMP180;494;48.744;10.106;2022-11-15T06:29:13;94301.00;;;8.50
30765;BMP180;494;48.744;10.106;2022-11-15T06:31:42;94782.00;;;8.00
30765;BMP180;494;48.744;10.106;2022-11-15T06:34:11;95254.00;;;8.40
30765;BMP180;494;48.744;10.106;2022-11-15T06:36:39;95276.00;;;8.50
30765;BMP180;494;48.744;10.106;2022-11-15T06:39:08;94681.00;;;8.50
30765;BMP180;494;48.744;10.106;2022-11-15T06:41:37;95182.00;;;8.50
30765;BMP180;494;48.744;10.106;2022-11-15T06:44:07;95366.00;;;8.50
30765;BMP180;494;48.744;10.106;2022-11-15T06:46:36;95050.00;;;8.60
30765;BMP180;494;48.744;10.106;2022-11-15T06:49:05;95245.00;;;7.20
30765;BMP180;494;48.744;10.106;2022-11-15T06:51:36;95007.00;;;8.70
30765;BMP180;494;48.744;10.106;2022-11-15T06:54:05;95293.00;;;8.80
30765;BMP180;494;48.744;10.106;2022-11-15T06:56:34;95489.00;;;8.80
30765;BMP180;494;48.744;10.106;2022-11-15T06:59:52;95357.00;;;8.80
30765;BMP180;494;48.744;10.106;2022-11-15T07:02:48;94682.00;;;5.40
30765;BMP180;494;48.744;10.106;2022-11-15T07:05:17;95348.00;;;6.90
30765;BMP180;494;48.744;10.106;2022-11-15T07:07:52;95355.00;;;8.80
30765;BMP180;494;48.744;10.106;2022-11-15T07:10:26;95333.00;;;8.70
30765;BMP180;494;48.744;10.106;2022-11-15T07:12:56;95515.00;;;8.80
30765;BMP180;494;48.744;10.106;2022-11-15T07:15:27;94268.00;;;7.80
30765;BMP180;494;48.744;10.106;2022-11-15T07:18:00;95572.00;;;9.00
30765;BMP180;494;48.744;10.106;2022-11-15T07:20:33;95334.00;;;9.00
30765;BMP180;494;48.744;10.106;2022-11-15T07:23:10;94551.00;;;8.80
30765;BMP180;494;48.744;10.106;2022-11-15T07:25:48;95478.00;;;5.90
30765;BMP180;494;48.744;10.106;2022-11-15T07:28:19;95552.00;;;6.30
30765;BMP180;494;48.744;10.106;2022-11-15T07:56:19;95401.00;;;11.10
30765;BMP180;494;48.744;10.106;2022-11-15T07:58:48;94676.00;;;10.60
30765;BMP180;494;48.744;10.106;2022-11-15T08:01:17;94471.00;;;12.50
30765;BMP180;494;48.744;10.106;2022-11-15T08:03:46;95163.00;;;10.60
30765;BMP180;494;48.744;10.106;2022-11-15T08:06:15;94641.00;;;12.80
30765;BMP180;494;48.744;10.106;2022-11-15T08:08:43;94722.00;;;11.60
30765;BMP180;494;48.744;10.106;2022-11-15T08:11:14;94591.00;;;14.40
30765;BMP180;494;48.744;10.106;2022-11-15T08:13:42;94470.00;;;13.70
30765;BMP180;494;48.744;10.106;2022-11-15T08:16:11;95312.00;;;15.30
30765;BMP180;494;48.744;10.106;2022-11-15T08:18:40;95273.00;;;15.30
30765;BMP180;494;48.744;10.106;2022-11-15T08:21:10;95352.00;;;15.70
30765;BMP180;494;48.744;10.106;2022-11-15T08:23:44;95396.00;;;16.20
30765;BMP180;494;48.744;10.106;2022-11-15T08:26:14;95084.00;;;16.70
30765;BMP180;494;48.744;10.106;2022-11-15T08:28:46;94547.00;;;17.90
30765;BMP180;494;48.744;10.106;2022-11-15T08:31:17;95237.00;;;16.40
30765;BMP180;494;48.744;10.106;2022-11-15T08:33:46;95301.00;;;17.60
30765;BMP180;494;48.744;10.106;2022-11-15T08:36:17;95210.00;;;19.40
30765;BMP180;494;48.744;10.106;2022-11-15T08:38:46;95013.00;;;18.20
30765;BMP180;494;48.744;10.106;2022-11-15T08:41:25;95319.00;;;20.40
30765;BMP180;494;48.744;10.106;2022-11-15T08:43:54;95002.00;;;21.40
30765;BMP180;494;48.744;10.106;2022-11-15T08:46:23;95227.00;;;21.70
30765;BMP180;494;48.744;10.106;2022-11-15T08:48:52;95018.00;;;21.60
30765;BMP180;494;48.744;10.106;2022-11-15T08:51:20;95195.00;;;21.00
30765;BMP180;494;48.744;10.106;2022-11-15T08:53:49;94926.00;;;22.90
30765;BMP180;494;48.744;10.106;2022-11-15T08:56:19;95297.00;;;21.70
30765;BMP180;494;48.744;10.106;2022-11-15T08:58:47;95132.00;;;22.70
30765;BMP180;494;48.744;10.106;2022-11-15T09:01:19;95245.00;;;23.30
30765;BMP180;494;48.744;10.106;2022-11-15T09:03:48;94560.00;;;23.50
30765;BMP180;494;48.744;10.106;2022-11-15T09:06:18;95026.00;;;24.80
30765;BMP180;494;48.744;10.106;2022-11-15T09:08:46;94705.00;;;24.50
30765;BMP180;494;48.744;10.106;2022-11-15T09:11:15;95032.00;;;24.20
30765;BMP180;494;48.744;10.106;2022-11-15T09:13:48;95145.00;;;24.10
30765;BMP180;494;48.744;10.106;2022-11-15T09:16:17;95090.00;;;25.00
30765;BMP180;494;48.744;10.106;2022-11-15T09:18:46;95167.00;;;25.80
30765;BMP180;494;48.744;10.106;2022-11-15T09:21:15;95301.00;;;26.90
30765;BMP180;494;48.744;10.106;2022-11-15T09:23:46;95185.00;;;25.90
30765;BMP180;494;48.744;10.106;2022-11-15T09:26:15;95260.00;;;26.90
30765;BMP180;494;48.744;10.106;2022-11-15T09:28:44;95227.00;;;26.50
30765;BMP180;494;48.744;10.106;2022-11-15T09:31:14;95114.00;;;25.60
30765;BMP180;494;48.744;10.106;2022-11-15T09:33:48;95096.00;;;26.60
30765;BMP180;494;48.744;10.106;2022-11-15T09:36:16;94934.00;;;25.50
30765;BMP180;494;48.744;10.106;2022-11-15T09:38:45;95166.00;;;24.30
30765;BMP180;494;48.744;10.106;2022-11-15T09:42:00;95230.00;;;26.40
30765;BMP180;494;48.744;10.106;2022-11-15T09:44:47;95133.00;;;26.60
30765;BMP180;494;48.744;10.106;2022-11-15T09:51:00;95151.00;;;26.10
30765;BMP180;494;48.744;10.106;2022-11-15T09:53:37;95013.00;;;27.20
30765;BMP180;494;48.744;10.106;2022-11-15T09:56:31;95212.00;;;27.60
30765;BMP180;494;48.744;10.106;2022-11-15T09:59:29;94724.00;;;27.50
30765;BMP180;494;48.744;10.106;2022-11-15T10:02:20;95121.00;;;26.90
30765;BMP180;494;48.744;10.106;2022-11-15T10:04:54;95164.00;;;27.40
30765;BMP180;494;48.744;10.106;2022-11-15T10:07:30;95284.00;;;28.20
30765;BMP180;494;48.744;10.106;2022-11-15T10:10:14;95294.00;;;27.00
30765;BMP180;494;48.744;10.106;2022-11-15T10:12:49;95214.00;;;26.30
30765;BMP180;494;48.744;10.106;2022-11-15T10:15:20;94958.00;;;25.90
30765;BMP180;494;48.744;10.106;2022-11-15T10:18:09;95035.00;;;25.60
30765;BMP180;494;48.744;10.106;2022-11-15T10:20:51;94624.00;;;25.10
30765;BMP180;494;48.744;10.106;2022-11-15T10:23:22;94777.00;;;25.20
30765;BMP180;494;48.744;10.106;2022-11-15T10:25:58;95227.00;;;25.50
30765;BMP180;494;48.744;10.106;2022-11-15T10:28:33;94932.00;;;26.20
30765;BMP180;494;48.744;10.106;2022-11-15T10:31:02;95213.00;;;25.80
30765;BMP180;494;48.744;10.106;2022-11-15T10:33:33;95190.00;;;26.30
30765;BMP180;494;48.744;10.106;2022-11-15T10:36:20;95260.00;;;25.00
30765;BMP180;494;48.744;10.106;2022-11-15T10:38:57;95079.00;;;23.90
30765;BMP180;494;48.744;10.106;2022-11-15T10:41:38;95260.00;;;22.30
30765;BMP180;494;48.744;10.106;2022-11-15T10:44:23;95142.00;;;21.80
30765;BMP180;494;48.744;10.106;2022-11-15T10:47:25;95138.00;;;21.00
30765;BMP180;494;48.744;10.106;2022-11-15T10:50:03;94962.00;;;21.00
30765;BMP180;494;48.744;10.106;2022-11-15T10:52:36;94613.00;;;17.90
30765;BMP180;494;48.744;10.106;2022-11-15T10:55:24;94329.00;;;17.00
30765;BMP180;494;48.744;10.106;2022-11-15T10:57:57;94917.00;;;18.40
30765;BMP180;494;48.744;10.106;2022-11-15T11:00:33;94865.00;;;19.70
30765;BMP180;494;48.744;10.106;2022-11-15T11:03:05;95157.00;;;19.60
30765;BMP180;494;48.744;10.106;2022-11-15T11:05:36;94697.00;;;19.50
30765;BMP180;494;48.744;10.106;2022-11-15T11:08:23;94618.00;;;19.80
30765;BMP180;494;48.744;10.106;2022-11-15T11:10:55;95123.00;;;19.60
30765;BMP180;494;48.744;10.106;2022-11-15T11:13:31;94950.00;;;17.70
30765;BMP180;494;48.744;10.106;2022-11-15T11:16:21;95130.00;;;19.50
30765;BMP180;494;48.744;10.106;2022-11-15T11:19:03;94973.00;;;20.10
30765;BMP180;494;48.744;10.106;2022-11-15T11:21:49;94964.00;;;20.00
30765;BMP180;494;48.744;10.106;2022-11-15T11:24:32;95265.00;;;18.20
30765;BMP180;494;48.744;10.106;2022-11-15T11:27:32;95186.00;;;20.50
30765;BMP180;494;48.744;10.106;2022-11-15T11:30:11;95103.00;;;19.20
30765;BMP180;494;48.744;10.106;2022-11-15T11:32:56;94844.00;;;22.80
30765;BMP180;494;48.744;10.106;2022-11-15T11:35:34;94847.00;;;23.60
30765;BMP180;494;48.744;10.106;2022-11-15T11:38:34;94965.00;;;25.40
30765;BMP180;494;48.744;10.106;2022-11-15T11:41:20;95096.00;;;28.30
30765;BMP180;494;48.744;10.106;2022-11-15T11:44:03;94868.00;;;27.00
30765;BMP180;494;48.744;10.106;2022-11-15T11:46:49;95177.00;;;26.50
30765;BMP180;494;48.744;10.106;2022-11-15T11:49:27;94887.00;;;25.80
30765;BMP180;494;48.744;10.106;2022-11-15T11:52:08;94343.00;;;26.00
30765;BMP180;494;48.744;10.106;2022-11-15T11:54:52;95004.00;;;25.40
30765;BMP180;494;48.744;10.106;2022-11-15T11:57:34;95112.00;;;24.90
30765;BMP180;494;48.744;10.106;2022-11-15T12:00:15;95007.00;;;25.30
30765;BMP180;494;48.744;10.106;2022-11-15T12:02:54;94510.00;;;24.40
30765;BMP180;494;48.744;10.106;2022-11-15T12:05:32;94817.00;;;24.00
30765;BMP180;494;48.744;10.106;2022-11-15T12:08:22;94637.00;;;22.80
30765;BMP180;494;48.744;10.106;2022-11-15T12:11:07;94932.00;;;21.90
30765;BMP180;494;48.744;10.106;2022-11-15T12:13:38;94659.00;;;23.10
30765;BMP180;494;48.744;10.106;2022-11-15T12:16:15;94835.00;;;22.60
30765;BMP180;494;48.744;10.106;2022-11-15T12:18:50;94986.00;;;21.20
30765;BMP180;494;48.744;10.106;2022-11-15T12:21:34;95142.00;;;22.20
30765;BMP180;494;48.744;10.106;2022-11-15T12:24:12;95075.00;;;23.00
30765;BMP180;494;48.744;10.106;2022-11-15T12:26:49;94955.00;;;21.50
30765;BMP180;494;48.744;10.106;2022-11-15T12:29:27;94456.00;;;21.30
30765;BMP180;494;48.744;10.106;2022-11-15T12:31:58;94871.00;;;21.70
30765;BMP180;494;48.744;10.106;2022-11-15T12:34:43;94990.00;;;21.90
30765;BMP180;494;48.744;10.106;2022-11-15T12:37:47;95107.00;;;22.20
30765;BMP180;494;48.744;10.106;2022-11-15T12:40:29;94928.00;;;22.00
30765;BMP180;494;48.744;10.106;2022-11-15T12:45:49;94854.00;;;20.60
30765;BMP180;494;48.744;10.106;2022-11-15T12:48:50;95050.00;;;22.20
30765;BMP180;494;48.744;10.106;2022-11-15T12:51:23;94976.00;;;23.20
30765;BMP180;494;48.744;10.106;2022-11-15T12:54:52;95022.00;;;23.90
30765;BMP180;494;48.744;10.106;2022-11-15T12:57:40;94617.00;;;24.40
30765;BMP180;494;48.744;10.106;2022-11-15T13:00:38;95045.00;;;25.60
30765;BMP180;494;48.744;10.106;2022-11-15T13:03:21;95041.00;;;26.20
30765;BMP180;494;48.744;10.106;2022-11-15T13:08:50;95007.00;;;23.70
30765;BMP180;494;48.744;10.106;2022-11-15T13:11:52;95086.00;;;22.70
30765;BMP180;494;48.744;10.106;2022-11-15T13:14:49;94957.00;;;21.70
30765;BMP180;494;48.744;10.106;2022-11-15T13:17:39;94851.00;;;21.10
30765;BMP180;494;48.744;10.106;2022-11-15T13:20:26;94729.00;;;19.50
30765;BMP180;494;48.744;10.106;2022-11-15T13:23:08;94492.00;;;19.20
30765;BMP180;494;48.744;10.106;2022-11-15T13:26:09;94950.00;;;19.20
30765;BMP180;494;48.744;10.106;2022-11-15T13:28:44;94986.00;;;17.60
30765;BMP180;494;48.744;10.106;2022-11-15T13:31:30;95022.00;;;18.60
30765;BMP180;494;48.744;10.106;2022-11-15T13:34:17;95092.00;;;18.40
30765;BMP180;494;48.744;10.106;2022-11-15T13:37:13;94709.00;;;18.20
30765;BMP180;494;48.744;10.106;2022-11-15T13:40:18;94895.00;;;18.10
30765;BMP180;494;48.744;10.106;2022-11-15T13:42:48;94209.00;;;16.10
30765;BMP180;494;48.744;10.106;2022-11-15T13:45:19;95100.00;;;17.10
30765;BMP180;494;48.744;10.106;2022-11-15T13:47:56;94811.00;;;16.20
30765;BMP180;494;48.744;10.106;2022-11-15T13:50:29;94334.00;;;17.20
30765;BMP180;494;48.744;10.106;2022-11-15T13:53:03;95074.00;;;17.60
30765;BMP180;494;48.744;10.106;2022-11-15T13:55:33;95021.00;;;17.50
30765;BMP180;494;48.744;10.106;2022-11-15T13:58:04;94741.00;;;17.60
30765;BMP180;494;48.744;10.106;2022-11-15T14:00:39;94985.00;;;17.60
30765;BMP180;494;48.744;10.106;2022-11-15T14:03:18;94908.00;;;17.50
30765;BMP180;494;48.744;10.106;2022-11-15T14:06:05;95007.00;;;17.40
30765;BMP180;494;48.744;10.106;2022-11-15T14:08:35;95052.00;;;15.10
30765;BMP180;494;48.744;10.106;2022-11-15T14:11:13;94573.00;;;16.10
30765;BMP180;494;48.744;10.106;2022-11-15T14:14:11;95013.00;;;17.20
30765;BMP180;494;48.744;10.106;2022-11-15T14:16:44;94983.00;;;16.40
30765;BMP180;494;48.744;10.106;2022-11-15T14:19:38;94588.00;;;16.80
30765;BMP180;494;48.744;10.106;2022-11-15T14:22:17;94975.00;;;17.20
30765;BMP180;494;48.744;10.106;2022-11-15T14:25:14;94609.00;;;16.50
30765;BMP180;494;48.744;10.106;2022-11-15T14:28:11;94964.00;;;17.10
30765;BMP180;494;48.744;10.106;2022-11-15T14:30:41;94962.00;;;16.70
30765;BMP180;494;48.744;10.106;2022-11-15T14:33:24;94963.00;;;17.00
30765;BMP180;494;48.744;10.106;2022-11-15T14:35:57;94657.00;;;16.30
30765;BMP180;494;48.744;10.106;2022-11-15T14:38:27;94861.00;;;16.00
30765;BMP180;494;48.744;10.106;2022-11-15T14:40:56;94751.00;;;15.80
30765;BMP180;494;48.744;10.106;2022-11-15T14:43:25;94990.00;;;16.50
30765;BMP180;494;48.744;10.106;2022-11-15T14:45:54;94634.00;;;16.50
30765;BMP180;494;48.744;10.106;2022-11-15T14:48:24;94868.00;;;15.00
30765;BMP180;494;48.744;10.106;2022-11-15T14:50:52;94691.00;;;16.40
30765;BMP180;494;48.744;10.106;2022-11-15T14:53:21;94831.00;;;15.60
30765;BMP180;494;48.744;10.106;2022-11-15T14:55:50;94755.00;;;16.20
30765;BMP180;494;48.744;10.106;2022-11-15T14:58:18;94881.00;;;15.40
30765;BMP180;494;48.744;10.106;2022-11-15T15:00:47;94737.00;;;14.60
30765;BMP180;494;48.744;10.106;2022-11-15T15:03:15;94771.00;;;14.40
30765;BMP180;494;48.744;10.106;2022-11-15T15:05:45;94491.00;;;15.90
30765;BMP180;494;48.744;10.106;2022-11-15T15:08:14;94161.00;;;15.20
30765;BMP180;494;48.744;10.106;2022-11-15T15:10:44;94703.00;;;15.80
30765;BMP180;494;48.744;10.106;2022-11-15T15:13:18;94995.00;;;15.50
30765;BMP180;494;48.744;10.106;2022-11-15T15:15:49;94908.00;;;14.50
30765;BMP180;494;48.744;10.106;2022-11-15T15:18:19;94744.00;;;15.40
30765;BMP180;494;48.744;10.106;2022-11-15T15:20:56;94606.00;;;15.40
30765;BMP180;494;48.744;10.106;2022-11-15T15:23:27;94908.00;;;15.40
30765;BMP180;494;48.744;10.106;2022-11-15T15:25:58;95005.00;;;15.20
30765;BMP180;494;48.744;10.106;2022-11-15T15:28:26;95049.00;;;13.20
30765;BMP180;494;48.744;10.106;2022-11-15T15:31:01;94901.00;;;15.10
30765;BMP180;494;48.744;10.106;2022-11-15T15:33:30;94749.00;;;14.30
30765;BMP180;494;48.744;10.106;2022-11-15T15:36:00;94812.00;;;14.00
30765;BMP180;494;48.744;10.106;2022-11-15T15:38:29;94666.00;;;14.20
30765;BMP180;494;48.744;10.106;2022-11-15T15:40:58;94972.00;;;14.30
30765;BMP180;494;48.744;10.106;2022-11-15T15:43:30;94915.00;;;15.10
30765;BMP180;494;48.744;10.106;2022-11-15T15:45:58;94756.00;;;13.80
30765;BMP180;494;48.744;10.106;2022-11-15T15:48:27;94628.00;;;13.50